createdAt,value
2018-08-23T00:00:01.216Z,801.88
2018-08-23T00:00:05.311Z,801.87
2018-08-23T00:00:09.623Z,801.87
2018-08-23T00:00:13.607Z,801.86
2018-08-23T00:00:17.488Z,801.86
2018-08-23T00:00:21.581Z,801.83
2018-08-23T00:00:25.671Z,801.85
2018-08-23T00:00:29.876Z,801.76
2018-08-23T00:00:33.976Z,801.78
2018-08-23T00:00:38.182Z,801.74
2018-08-23T00:00:42.279Z,801.75
2018-08-23T00:00:46.472Z,801.74
2018-08-23T00:00:50.784Z,801.73
2018-08-23T00:00:54.877Z,801.73
2018-08-23T00:00:59.079Z,801.72
2018-08-23T00:01:03.179Z,801.72
2018-08-23T00:01:07.379Z,801.67
2018-08-23T00:01:11.689Z,801.69
2018-08-23T00:01:16.000Z,801.69
2018-08-23T00:01:20.306Z,801.7
2018-08-23T00:01:24.513Z,801.63
2018-08-23T00:01:28.869Z,801.65
2018-08-23T00:01:33.185Z,801.63
2018-08-23T00:01:37.505Z,801.58
2018-08-23T00:01:41.711Z,801.58
2018-08-23T00:01:45.915Z,801.58
2018-08-23T00:01:50.114Z,801.6
2018-08-23T00:01:54.100Z,801.57
2018-08-23T00:01:58.195Z,801.57
2018-08-23T00:02:02.287Z,801.55
2018-08-23T00:02:06.170Z,801.55
2018-08-23T00:02:10.495Z,801.48
2018-08-23T00:02:14.375Z,801.53
2018-08-23T00:02:18.360Z,801.56
2018-08-23T00:02:22.568Z,801.5
2018-08-23T00:02:26.665Z,801.57
2018-08-23T00:02:30.969Z,801.51
2018-08-23T00:02:35.070Z,801.51
2018-08-23T00:02:39.174Z,801.51
2018-08-23T00:02:43.480Z,801.51
2018-08-23T00:02:47.583Z,801.51
2018-08-23T00:02:51.713Z,801.49
2018-08-23T00:02:56.001Z,801.5
2018-08-23T00:03:00.612Z,801.49
2018-08-23T00:03:05.046Z,801.52
2018-08-23T00:03:09.987Z,801.51
2018-08-23T00:03:14.526Z,801.5
2018-08-23T00:03:18.838Z,801.4
2018-08-23T00:03:23.146Z,801.49
2018-08-23T00:03:27.200Z,801.49
2018-08-23T00:03:31.814Z,801.46
2018-08-23T00:03:36.019Z,801.43
2018-08-23T00:03:40.931Z,801.42
2018-08-23T00:03:45.799Z,801.45
2018-08-23T00:03:50.623Z,801.45
2018-08-23T00:03:54.822Z,801.43
2018-08-23T00:03:58.924Z,801.48
2018-08-23T00:04:03.227Z,801.46
2018-08-23T00:04:07.368Z,801.42
2018-08-23T00:04:11.575Z,801.42
2018-08-23T00:04:15.792Z,801.43
2018-08-23T00:04:20.107Z,801.42
2018-08-23T00:04:24.315Z,801.4
2018-08-23T00:04:28.317Z,801.41
2018-08-23T00:04:32.523Z,801.42
2018-08-23T00:04:36.728Z,801.43
2018-08-23T00:04:40.927Z,801.41
2018-08-23T00:04:45.027Z,801.36
2018-08-23T00:04:49.163Z,801.4
2018-08-23T00:04:53.258Z,801.38
2018-08-23T00:04:57.573Z,801.37
2018-08-23T00:05:01.881Z,801.37
2018-08-23T00:05:05.762Z,801.37
2018-08-23T00:05:09.972Z,801.4
2018-08-23T00:05:14.282Z,801.39
2018-08-23T00:05:18.373Z,801.39
2018-08-23T00:05:22.468Z,801.39
2018-08-23T00:05:26.671Z,801.39
2018-08-23T00:05:30.769Z,801.32
2018-08-23T00:05:34.966Z,801.4
2018-08-23T00:05:39.167Z,801.39
2018-08-23T00:05:43.258Z,801.39
2018-08-23T00:05:47.570Z,801.37
2018-08-23T00:05:51.666Z,801.36
2018-08-23T00:05:55.972Z,801.35
2018-08-23T00:06:00.181Z,801.35
2018-08-23T00:06:04.534Z,801.35
2018-08-23T00:06:08.739Z,801.33
2018-08-23T00:06:13.040Z,801.29
2018-08-23T00:06:17.352Z,801.35
2018-08-23T00:06:21.555Z,801.37
2018-08-23T00:06:25.860Z,801.34
2018-08-23T00:06:30.168Z,801.39
2018-08-23T00:06:34.534Z,801.36
2018-08-23T00:06:38.729Z,801.35
2018-08-23T00:06:42.933Z,801.36
2018-08-23T00:06:47.132Z,801.31
2018-08-23T00:06:51.364Z,801.34
2018-08-23T00:06:55.673Z,801.38
2018-08-23T00:06:59.989Z,801.36
2018-08-23T00:07:04.191Z,801.35
2018-08-23T00:07:08.283Z,801.34
2018-08-23T00:07:12.482Z,801.33
2018-08-23T00:07:16.785Z,801.32
2018-08-23T00:07:20.980Z,801.36
2018-08-23T00:07:25.180Z,801.35
2018-08-23T00:07:29.385Z,801.33
2018-08-23T00:07:33.595Z,801.34
2018-08-23T00:07:37.906Z,801.36
2018-08-23T00:07:41.897Z,801.36
2018-08-23T00:07:46.099Z,801.38
2018-08-23T00:07:50.362Z,801.37
2018-08-23T00:07:54.479Z,801.31
2018-08-23T00:07:58.709Z,801.35
2018-08-23T00:08:02.895Z,801.35
2018-08-23T00:08:07.265Z,801.35
2018-08-23T00:08:11.643Z,801.4
2018-08-23T00:08:15.770Z,801.38
2018-08-23T00:08:20.155Z,801.34
2018-08-23T00:08:24.334Z,801.33
2018-08-23T00:08:28.642Z,801.34
2018-08-23T00:08:32.890Z,801.36
2018-08-23T00:08:37.150Z,801.35
2018-08-23T00:08:41.356Z,801.33
2018-08-23T00:08:45.623Z,801.32
2018-08-23T00:08:49.912Z,801.33
2018-08-23T00:08:54.139Z,801.3
2018-08-23T00:08:58.185Z,801.32
2018-08-23T00:09:02.280Z,801.34
2018-08-23T00:09:06.582Z,801.33
2018-08-23T00:09:10.895Z,801.31
2018-08-23T00:09:15.092Z,801.32
2018-08-23T00:09:19.287Z,801.34
2018-08-23T00:09:23.486Z,801.33
2018-08-23T00:09:27.693Z,801.36
2018-08-23T00:09:32.069Z,801.33
2018-08-23T00:09:36.094Z,801.33
2018-08-23T00:09:40.108Z,801.33
2018-08-23T00:09:44.359Z,801.31
2018-08-23T00:09:48.531Z,801.35
2018-08-23T00:09:52.783Z,801.3
2018-08-23T00:09:56.790Z,801.33
2018-08-23T00:10:01.062Z,801.33
2018-08-23T00:10:05.538Z,801.32
2018-08-23T00:10:09.712Z,801.29
2018-08-23T00:10:13.709Z,801.27
2018-08-23T00:10:17.845Z,801.35
2018-08-23T00:10:22.229Z,801.28
2018-08-23T00:10:26.343Z,801.3
2018-08-23T00:10:30.678Z,801.31
2018-08-23T00:10:34.797Z,801.3
2018-08-23T00:10:38.900Z,801.32
2018-08-23T00:10:43.001Z,801.3
2018-08-23T00:10:47.199Z,801.31
2018-08-23T00:10:51.404Z,801.3
2018-08-23T00:10:55.621Z,801.3
2018-08-23T00:10:59.852Z,801.31
2018-08-23T00:11:04.161Z,801.31
2018-08-23T00:11:08.044Z,801.29
2018-08-23T00:11:12.249Z,801.31
2018-08-23T00:11:16.450Z,801.32
2018-08-23T00:11:20.545Z,801.33
2018-08-23T00:11:24.737Z,801.32
2018-08-23T00:11:28.830Z,801.31
2018-08-23T00:11:33.021Z,801.3
2018-08-23T00:11:37.241Z,801.29
2018-08-23T00:11:41.340Z,801.32
2018-08-23T00:11:45.537Z,801.33
2018-08-23T00:11:49.909Z,801.29
2018-08-23T00:11:54.114Z,801.33
2018-08-23T00:11:58.316Z,801.31
2018-08-23T00:12:02.528Z,801.33
2018-08-23T00:12:06.411Z,801.33
2018-08-23T00:12:10.611Z,801.3
2018-08-23T00:12:14.923Z,801.28
2018-08-23T00:12:19.123Z,801.3
2018-08-23T00:12:23.327Z,801.31
2018-08-23T00:12:27.421Z,801.29
2018-08-23T00:12:31.637Z,801.28
2018-08-23T00:12:35.730Z,801.3
2018-08-23T00:12:39.821Z,801.3
2018-08-23T00:12:44.015Z,801.3
2018-08-23T00:12:48.321Z,801.35
2018-08-23T00:12:52.521Z,801.34
2018-08-23T00:12:56.634Z,801.3
2018-08-23T00:13:00.973Z,801.31
2018-08-23T00:13:05.172Z,801.32
2018-08-23T00:13:09.054Z,801.28
2018-08-23T00:13:13.146Z,801.31
2018-08-23T00:13:17.343Z,801.33
2018-08-23T00:13:21.559Z,801.3
2018-08-23T00:13:25.763Z,801.28
2018-08-23T00:13:30.073Z,801.32
2018-08-23T00:13:34.058Z,801.3
2018-08-23T00:13:38.367Z,801.34
2018-08-23T00:13:42.765Z,801.32
2018-08-23T00:13:47.186Z,801.32
2018-08-23T00:13:51.936Z,801.32
2018-08-23T00:13:56.887Z,801.33
2018-08-23T00:14:01.840Z,801.32
2018-08-23T00:14:06.056Z,801.31
2018-08-23T00:14:10.163Z,801.32
2018-08-23T00:14:14.468Z,801.28
2018-08-23T00:14:18.743Z,801.27
2018-08-23T00:14:22.972Z,801.29
2018-08-23T00:14:27.186Z,801.29
2018-08-23T00:14:31.519Z,801.28
2018-08-23T00:14:35.619Z,801.27
2018-08-23T00:14:39.939Z,801.32
2018-08-23T00:14:44.137Z,801.29
2018-08-23T00:14:48.345Z,801.26
2018-08-23T00:14:52.545Z,801.27
2018-08-23T00:14:56.646Z,801.29
2018-08-23T00:15:00.841Z,801.29
2018-08-23T00:15:04.859Z,801.26
2018-08-23T00:15:08.840Z,801.25
2018-08-23T00:15:12.956Z,801.28
2018-08-23T00:15:17.302Z,801.27
2018-08-23T00:15:21.547Z,801.27
2018-08-23T00:15:25.895Z,801.28
2018-08-23T00:15:30.223Z,801.28
2018-08-23T00:15:34.316Z,801.25
2018-08-23T00:15:38.623Z,801.24
2018-08-23T00:15:42.947Z,801.26
2018-08-23T00:15:47.149Z,801.23
2018-08-23T00:15:51.525Z,801.23
2018-08-23T00:15:55.856Z,801.21
2018-08-23T00:16:00.057Z,801.22
2018-08-23T00:16:04.276Z,801.21
2018-08-23T00:16:08.620Z,801.25
2018-08-23T00:16:12.961Z,801.18
2018-08-23T00:16:17.073Z,801.25
2018-08-23T00:16:21.075Z,801.23
2018-08-23T00:16:25.168Z,801.22
2018-08-23T00:16:29.494Z,801.2
2018-08-23T00:16:33.856Z,801.21
2018-08-23T00:16:38.473Z,801.16
2018-08-23T00:16:43.166Z,801.23
2018-08-23T00:16:48.100Z,801.14
2018-08-23T00:16:52.730Z,801.2
2018-08-23T00:16:56.658Z,801.23
2018-08-23T00:17:00.860Z,801.17
2018-08-23T00:17:04.955Z,801.2
2018-08-23T00:17:09.172Z,801.19
2018-08-23T00:17:13.264Z,801.13
2018-08-23T00:17:17.472Z,801.14
2018-08-23T00:17:21.673Z,801.21
2018-08-23T00:17:25.872Z,801.21
2018-08-23T00:17:30.177Z,801.18
2018-08-23T00:17:34.481Z,801.14
2018-08-23T00:17:38.680Z,801.19
2018-08-23T00:17:42.780Z,801.18
2018-08-23T00:17:46.777Z,801.17
2018-08-23T00:17:51.081Z,801.19
2018-08-23T00:17:55.071Z,801.18
2018-08-23T00:17:59.378Z,801.18
2018-08-23T00:18:03.585Z,801.19
2018-08-23T00:18:07.888Z,801.14
2018-08-23T00:18:11.986Z,801.18
2018-08-23T00:18:16.303Z,801.13
2018-08-23T00:18:20.511Z,801.16
2018-08-23T00:18:24.824Z,801.17
2018-08-23T00:18:29.038Z,801.17
2018-08-23T00:18:33.342Z,801.15
2018-08-23T00:18:37.433Z,801.16
2018-08-23T00:18:41.538Z,801.15
2018-08-23T00:18:45.742Z,801.15
2018-08-23T00:18:50.061Z,801.16
2018-08-23T00:18:54.153Z,801.18
2018-08-23T00:18:58.249Z,801.17
2018-08-23T00:19:02.557Z,801.16
2018-08-23T00:19:06.787Z,801.18
2018-08-23T00:19:10.780Z,801.13
2018-08-23T00:19:15.086Z,801.17
2018-08-23T00:19:19.391Z,801.15
2018-08-23T00:19:23.600Z,801.15
2018-08-23T00:19:27.689Z,801.13
2018-08-23T00:19:32.005Z,801.14
2018-08-23T00:19:36.203Z,801.16
2018-08-23T00:19:40.299Z,801.1
2018-08-23T00:19:44.507Z,801.11
2018-08-23T00:19:48.492Z,801.12
2018-08-23T00:19:52.803Z,801.12
2018-08-23T00:19:56.999Z,801.08
2018-08-23T00:20:01.201Z,801.12
2018-08-23T00:20:05.198Z,801.13
2018-08-23T00:20:09.395Z,801.13
2018-08-23T00:20:13.698Z,801.09
2018-08-23T00:20:17.682Z,801.09
2018-08-23T00:20:21.784Z,801.13
2018-08-23T00:20:25.772Z,801.1
2018-08-23T00:20:29.976Z,801.07
2018-08-23T00:20:34.067Z,801.03
2018-08-23T00:20:38.377Z,801.11
2018-08-23T00:20:42.686Z,801.1
2018-08-23T00:20:46.931Z,801.1
2018-08-23T00:20:51.244Z,801.12
2018-08-23T00:20:55.445Z,801.1
2018-08-23T00:20:59.754Z,801.08
2018-08-23T00:21:03.741Z,801.08
2018-08-23T00:21:07.734Z,801.09
2018-08-23T00:21:12.086Z,801.13
2018-08-23T00:21:16.411Z,801.12
2018-08-23T00:21:20.607Z,801.09
2018-08-23T00:21:24.808Z,801.1
2018-08-23T00:21:28.909Z,801.11
2018-08-23T00:21:33.220Z,801.1
2018-08-23T00:21:37.427Z,801.14
2018-08-23T00:21:41.631Z,801.12
2018-08-23T00:21:45.633Z,801.11
2018-08-23T00:21:49.951Z,801.1
2018-08-23T00:21:54.203Z,801.13
2018-08-23T00:21:58.304Z,801.12
2018-08-23T00:22:02.395Z,801.14
2018-08-23T00:22:06.598Z,801.12
2018-08-23T00:22:10.693Z,801.11
2018-08-23T00:22:14.906Z,801.08
2018-08-23T00:22:18.893Z,801.12
2018-08-23T00:22:22.878Z,801.13
2018-08-23T00:22:26.978Z,801.1
2018-08-23T00:22:31.071Z,801.11
2018-08-23T00:22:35.379Z,801.11
2018-08-23T00:22:39.479Z,801.14
2018-08-23T00:22:43.791Z,801.1
2018-08-23T00:22:47.995Z,801.09
2018-08-23T00:22:51.990Z,801.04
2018-08-23T00:22:56.195Z,801.1
2018-08-23T00:23:00.388Z,801.1
2018-08-23T00:23:04.482Z,801.12
2018-08-23T00:23:08.473Z,801.11
2018-08-23T00:23:12.680Z,801.13
2018-08-23T00:23:16.883Z,801.12
2018-08-23T00:23:21.197Z,801.1
2018-08-23T00:23:25.291Z,801.12
2018-08-23T00:23:29.394Z,801.12
2018-08-23T00:23:33.597Z,801.11
2018-08-23T00:23:37.681Z,801.13
2018-08-23T00:23:42.003Z,801.12
2018-08-23T00:23:46.310Z,801.11
2018-08-23T00:23:50.618Z,801.07
2018-08-23T00:23:54.824Z,801.07
2018-08-23T00:23:58.915Z,801.08
2018-08-23T00:24:02.903Z,801.11
2018-08-23T00:24:06.999Z,801.1
2018-08-23T00:24:11.314Z,801.11
2018-08-23T00:24:15.621Z,801.09
2018-08-23T00:24:19.828Z,801.1
2018-08-23T00:24:24.150Z,801.11
2018-08-23T00:24:28.035Z,801.14
2018-08-23T00:24:32.376Z,801.1
2018-08-23T00:24:36.469Z,801.09
2018-08-23T00:24:40.782Z,801.11
2018-08-23T00:24:44.979Z,801.07
2018-08-23T00:24:49.174Z,801.07
2018-08-23T00:24:53.386Z,801.09
2018-08-23T00:24:57.691Z,801.09
2018-08-23T00:25:01.893Z,801.09
2018-08-23T00:25:37.983Z,801.1
2018-08-23T00:25:42.294Z,801.05
2018-08-23T00:25:46.602Z,801.07
2018-08-23T00:25:50.904Z,801.07
2018-08-23T00:25:55.117Z,801.06
2018-08-23T00:25:59.311Z,801.06
2018-08-23T00:26:03.304Z,801.05
2018-08-23T00:26:07.512Z,801.1
2018-08-23T00:26:11.752Z,801.05
2018-08-23T00:26:15.844Z,801
2018-08-23T00:26:20.042Z,801.08
2018-08-23T00:26:24.343Z,801.08
2018-08-23T00:26:28.436Z,801.05
2018-08-23T00:26:32.531Z,801.06
2018-08-23T00:26:36.626Z,801.05
2018-08-23T00:26:40.717Z,801.05
2018-08-23T00:26:45.026Z,801.04
2018-08-23T00:26:49.135Z,801.04
2018-08-23T00:26:53.436Z,801.06
2018-08-23T00:26:57.837Z,801.06
2018-08-23T00:27:02.472Z,801.05
2018-08-23T00:27:06.850Z,801.05
2018-08-23T00:27:11.530Z,801.01
2018-08-23T00:27:16.456Z,801.06
2018-08-23T00:27:20.859Z,801.06
2018-08-23T00:27:25.070Z,801.05
2018-08-23T00:27:29.273Z,801.05
2018-08-23T00:27:33.473Z,801.08
2018-08-23T00:27:37.673Z,801.06
2018-08-23T00:27:41.775Z,801.03
2018-08-23T00:27:45.865Z,801.07
2018-08-23T00:27:50.110Z,801.05
2018-08-23T00:27:54.427Z,801.03
2018-08-23T00:27:58.412Z,801.03
2018-08-23T00:28:02.514Z,801.04
2018-08-23T00:28:06.823Z,801.07
2018-08-23T00:28:10.919Z,801.03
2018-08-23T00:28:15.120Z,801.03
2018-08-23T00:28:19.216Z,801.05
2018-08-23T00:28:23.455Z,801.05
2018-08-23T00:28:27.754Z,801.03
2018-08-23T00:28:31.843Z,801.03
2018-08-23T00:28:36.149Z,801.02
2018-08-23T00:28:40.350Z,801.03
2018-08-23T00:28:44.554Z,801.02
2018-08-23T00:28:48.438Z,801
2018-08-23T00:28:52.635Z,800.98
2018-08-23T00:28:56.732Z,801.01
2018-08-23T00:29:01.039Z,801.01
2018-08-23T00:29:05.019Z,801.04
2018-08-23T00:29:09.013Z,800.99
2018-08-23T00:29:13.322Z,801.03
2018-08-23T00:29:17.625Z,801.01
2018-08-23T00:29:21.823Z,801.03
2018-08-23T00:29:26.027Z,801.02
2018-08-23T00:29:30.133Z,801.03
2018-08-23T00:29:34.344Z,801
2018-08-23T00:29:38.440Z,801.05
2018-08-23T00:29:42.642Z,801.06
2018-08-23T00:29:46.736Z,801.06
2018-08-23T00:29:50.933Z,801.06
2018-08-23T00:29:55.131Z,801.05
2018-08-23T00:29:59.235Z,801.01
2018-08-23T00:30:03.603Z,801.05
2018-08-23T00:30:07.809Z,801
2018-08-23T00:30:12.117Z,801.06
2018-08-23T00:30:16.423Z,801.06
2018-08-23T00:30:20.517Z,801.07
2018-08-23T00:30:24.823Z,801.07
2018-08-23T00:30:28.915Z,801.05
2018-08-23T00:30:33.124Z,801.07
2018-08-23T00:30:37.223Z,801.07
2018-08-23T00:30:41.312Z,801.02
2018-08-23T00:30:45.510Z,801.03
2018-08-23T00:30:49.823Z,801.07
2018-08-23T00:30:53.807Z,801.03
2018-08-23T00:30:58.007Z,801.03
2018-08-23T00:31:02.221Z,801.05
2018-08-23T00:31:06.427Z,801.02
2018-08-23T00:31:10.630Z,801.05
2018-08-23T00:31:14.729Z,801.08
2018-08-23T00:31:18.927Z,801.1
2018-08-23T00:31:23.128Z,801.06
2018-08-23T00:31:27.327Z,801.05
2018-08-23T00:31:31.421Z,800.98
2018-08-23T00:31:35.726Z,801.03
2018-08-23T00:31:39.933Z,801.07
2018-08-23T00:31:44.234Z,801.07
2018-08-23T00:31:48.542Z,801.07
2018-08-23T00:31:52.744Z,801.07
2018-08-23T00:31:56.946Z,801.07
2018-08-23T00:32:01.253Z,801.06
2018-08-23T00:32:05.629Z,801.09
2018-08-23T00:32:09.953Z,801.05
2018-08-23T00:32:14.260Z,801.02
2018-08-23T00:32:18.456Z,801.05
2018-08-23T00:32:22.678Z,801.03
2018-08-23T00:32:26.883Z,801.11
2018-08-23T00:32:31.197Z,801.09
2018-08-23T00:32:35.512Z,801.11
2018-08-23T00:32:39.648Z,801.09
2018-08-23T00:32:43.957Z,801.1
2018-08-23T00:32:48.153Z,801.13
2018-08-23T00:32:52.354Z,801.13
2018-08-23T00:32:56.449Z,801.13
2018-08-23T00:33:00.758Z,801.08
2018-08-23T00:33:04.973Z,801.12
2018-08-23T00:33:09.281Z,801.14
2018-08-23T00:33:13.479Z,801.17
2018-08-23T00:33:17.679Z,801.14
2018-08-23T00:33:21.986Z,801.14
2018-08-23T00:33:26.080Z,801.09
2018-08-23T00:33:30.176Z,801.12
2018-08-23T00:33:34.162Z,801.12
2018-08-23T00:33:38.481Z,801.17
2018-08-23T00:33:42.676Z,801.16
2018-08-23T00:33:46.982Z,801.1
2018-08-23T00:33:51.298Z,801.18
2018-08-23T00:33:55.390Z,801.18
2018-08-23T00:33:59.508Z,801.18
2018-08-23T00:34:03.722Z,801.21
2018-08-23T00:34:07.923Z,801.2
2018-08-23T00:34:12.018Z,801.2
2018-08-23T00:34:16.326Z,801.22
2018-08-23T00:34:20.427Z,801.23
2018-08-23T00:34:24.751Z,801.24
2018-08-23T00:34:28.846Z,801.22
2018-08-23T00:34:33.149Z,801.24
2018-08-23T00:34:37.352Z,801.24
2018-08-23T00:34:41.665Z,801.25
2018-08-23T00:34:45.963Z,801.22
2018-08-23T00:34:50.272Z,801.22
2018-08-23T00:34:54.264Z,801.22
2018-08-23T00:34:58.353Z,801.23
2018-08-23T00:35:02.669Z,801.25
2018-08-23T00:35:06.766Z,801.27
2018-08-23T00:35:10.963Z,801.26
2018-08-23T00:35:15.159Z,801.28
2018-08-23T00:35:19.359Z,801.3
2018-08-23T00:35:23.567Z,801.28
2018-08-23T00:35:27.773Z,801.29
2018-08-23T00:35:32.076Z,801.32
2018-08-23T00:35:36.283Z,801.29
2018-08-23T00:35:40.488Z,801.33
2018-08-23T00:35:44.685Z,801.3
2018-08-23T00:35:48.881Z,801.33
2018-08-23T00:35:52.967Z,801.31
2018-08-23T00:35:57.167Z,801.31
2018-08-23T00:36:01.261Z,801.32
2018-08-23T00:36:05.471Z,801.34
2018-08-23T00:36:09.581Z,801.34
2018-08-23T00:36:13.777Z,801.33
2018-08-23T00:36:17.871Z,801.32
2018-08-23T00:36:22.176Z,801.33
2018-08-23T00:36:26.375Z,801.36
2018-08-23T00:36:30.580Z,801.32
2018-08-23T00:36:34.788Z,801.33
2018-08-23T00:36:39.088Z,801.36
2018-08-23T00:36:43.397Z,801.37
2018-08-23T00:36:47.596Z,801.36
2018-08-23T00:36:51.901Z,801.35
2018-08-23T00:36:56.108Z,801.35
2018-08-23T00:37:00.404Z,801.35
2018-08-23T00:37:04.643Z,801.38
2018-08-23T00:37:08.846Z,801.4
2018-08-23T00:37:13.160Z,801.39
2018-08-23T00:37:17.358Z,801.38
2018-08-23T00:37:21.565Z,801.37
2018-08-23T00:37:25.659Z,801.38
2018-08-23T00:37:29.969Z,801.37
2018-08-23T00:37:34.059Z,801.4
2018-08-23T00:37:38.267Z,801.37
2018-08-23T00:37:42.366Z,801.38
2018-08-23T00:37:46.455Z,801.39
2018-08-23T00:37:50.668Z,801.38
2018-08-23T00:37:54.871Z,801.36
2018-08-23T00:37:58.965Z,801.39
2018-08-23T00:38:03.167Z,801.34
2018-08-23T00:38:07.374Z,801.38
2018-08-23T00:38:11.690Z,801.38
2018-08-23T00:38:15.785Z,801.36
2018-08-23T00:38:19.884Z,801.39
2018-08-23T00:38:24.197Z,801.33
2018-08-23T00:38:28.393Z,801.37
2018-08-23T00:38:32.694Z,801.35
2018-08-23T00:38:36.793Z,801.37
2018-08-23T00:38:40.880Z,801.32
2018-08-23T00:38:44.975Z,801.32
2018-08-23T00:38:49.322Z,801.36
2018-08-23T00:38:53.407Z,801.38
2018-08-23T00:38:57.715Z,801.38
2018-08-23T00:39:01.964Z,801.35
2018-08-23T00:39:06.274Z,801.32
2018-08-23T00:39:10.472Z,801.34
2018-08-23T00:39:14.560Z,801.36
2018-08-23T00:39:18.759Z,801.36
2018-08-23T00:39:22.857Z,801.35
2018-08-23T00:39:27.055Z,801.36
2018-08-23T00:39:31.409Z,801.37
2018-08-23T00:39:35.492Z,801.37
2018-08-23T00:39:39.821Z,801.35
2018-08-23T00:39:43.910Z,801.3
2018-08-23T00:39:48.121Z,801.35
2018-08-23T00:39:52.422Z,801.36
2018-08-23T00:39:56.615Z,801.37
2018-08-23T00:40:00.921Z,801.36
2018-08-23T00:40:05.128Z,801.36
2018-08-23T00:40:09.222Z,801.35
2018-08-23T00:40:13.205Z,801.34
2018-08-23T00:40:17.294Z,801.37
2018-08-23T00:40:21.594Z,801.33
2018-08-23T00:40:25.682Z,801.36
2018-08-23T00:40:29.772Z,801.33
2018-08-23T00:40:33.863Z,801.36
2018-08-23T00:40:38.170Z,801.39
2018-08-23T00:40:42.470Z,801.36
2018-08-23T00:40:46.572Z,801.36
2018-08-23T00:40:50.879Z,801.35
2018-08-23T00:40:54.968Z,801.36
2018-08-23T00:40:59.056Z,801.38
2018-08-23T00:41:03.414Z,801.38
2018-08-23T00:41:07.501Z,801.34
2018-08-23T00:41:11.697Z,801.36
2018-08-23T00:41:15.912Z,801.34
2018-08-23T00:41:20.118Z,801.31
2018-08-23T00:41:24.315Z,801.34
2018-08-23T00:41:28.507Z,801.37
2018-08-23T00:41:32.696Z,801.33
2018-08-23T00:41:36.681Z,801.34
2018-08-23T00:41:40.875Z,801.34
2018-08-23T00:41:45.184Z,801.33
2018-08-23T00:41:49.394Z,801.31
2018-08-23T00:41:53.490Z,801.34
2018-08-23T00:41:57.582Z,801.31
2018-08-23T00:42:01.887Z,801.31
2018-08-23T00:42:05.998Z,801.29
2018-08-23T00:42:10.343Z,801.28
2018-08-23T00:42:14.442Z,801.3
2018-08-23T00:42:18.588Z,801.29
2018-08-23T00:42:22.796Z,801.36
2018-08-23T00:42:26.994Z,801.31
2018-08-23T00:42:31.308Z,801.31
2018-08-23T00:42:35.406Z,801.31
2018-08-23T00:42:39.603Z,801.33
2018-08-23T00:42:43.800Z,801.31
2018-08-23T00:42:47.894Z,801.32
2018-08-23T00:42:52.098Z,801.29
2018-08-23T00:42:56.298Z,801.24
2018-08-23T00:43:00.607Z,801.28
2018-08-23T00:43:04.708Z,801.3
2018-08-23T00:43:08.911Z,801.29
2018-08-23T00:43:13.107Z,801.29
2018-08-23T00:43:17.206Z,801.25
2018-08-23T00:43:21.514Z,801.31
2018-08-23T00:43:25.502Z,801.25
2018-08-23T00:43:29.707Z,801.25
2018-08-23T00:43:33.795Z,801.22
2018-08-23T00:43:37.885Z,801.24
2018-08-23T00:43:42.190Z,801.24
2018-08-23T00:43:46.287Z,801.23
2018-08-23T00:43:50.485Z,801.23
2018-08-23T00:43:54.679Z,801.22
2018-08-23T00:43:58.982Z,801.25
2018-08-23T00:44:02.977Z,801.21
2018-08-23T00:44:07.182Z,801.2
2018-08-23T00:44:11.165Z,801.2
2018-08-23T00:44:15.253Z,801.2
2018-08-23T00:44:19.451Z,801.2
2018-08-23T00:44:23.651Z,801.22
2018-08-23T00:44:27.756Z,801.21
2018-08-23T00:44:31.955Z,801.17
2018-08-23T00:44:35.942Z,801.18
2018-08-23T00:44:39.928Z,801.17
2018-08-23T00:44:43.909Z,801.18
2018-08-23T00:44:48.216Z,801.11
2018-08-23T00:44:52.415Z,801.1
2018-08-23T00:44:56.623Z,801.12
2018-08-23T00:45:00.935Z,801.14
2018-08-23T00:45:05.065Z,801.12
2018-08-23T00:45:09.159Z,801.12
2018-08-23T00:45:13.365Z,801.12
2018-08-23T00:45:17.563Z,801.11
2018-08-23T00:45:21.872Z,801.14
2018-08-23T00:45:26.170Z,801.09
2018-08-23T00:45:30.169Z,801.08
2018-08-23T00:45:34.478Z,801.08
2018-08-23T00:45:38.801Z,801.09
2018-08-23T00:45:42.994Z,801.07
2018-08-23T00:45:47.302Z,801.05
2018-08-23T00:45:51.614Z,801.03
2018-08-23T00:45:55.716Z,801.04
2018-08-23T00:45:59.917Z,801.07
2018-08-23T00:46:04.116Z,801.01
2018-08-23T00:46:08.209Z,801.04
2018-08-23T00:46:12.303Z,801.04
2018-08-23T00:46:16.290Z,801.01
2018-08-23T00:46:20.598Z,801.01
2018-08-23T00:46:24.691Z,801.05
2018-08-23T00:46:28.894Z,800.96
2018-08-23T00:46:33.214Z,800.99
2018-08-23T00:46:37.541Z,800.93
2018-08-23T00:46:41.742Z,800.97
2018-08-23T00:46:45.936Z,800.99
2018-08-23T00:46:50.237Z,800.95
2018-08-23T00:46:54.325Z,800.94
2018-08-23T00:46:58.523Z,800.93
2018-08-23T00:47:02.725Z,800.93
2018-08-23T00:47:07.036Z,800.93
2018-08-23T00:47:11.230Z,800.88
2018-08-23T00:47:15.431Z,800.91
2018-08-23T00:47:19.742Z,800.91
2018-08-23T00:47:23.961Z,800.92
2018-08-23T00:47:28.266Z,800.89
2018-08-23T00:47:32.359Z,800.87
2018-08-23T00:47:36.562Z,800.84
2018-08-23T00:47:40.763Z,800.85
2018-08-23T00:47:44.968Z,800.83
2018-08-23T00:47:49.175Z,800.84
2018-08-23T00:47:53.384Z,800.82
2018-08-23T00:47:57.691Z,800.8
2018-08-23T00:48:02.007Z,800.82
2018-08-23T00:48:06.345Z,800.8
2018-08-23T00:48:10.652Z,800.79
2018-08-23T00:48:14.969Z,800.78
2018-08-23T00:48:19.174Z,800.77
2018-08-23T00:48:23.374Z,800.75
2018-08-23T00:48:27.584Z,800.75
2018-08-23T00:48:31.783Z,800.73
2018-08-23T00:48:35.988Z,800.71
2018-08-23T00:48:40.080Z,800.72
2018-08-23T00:48:44.274Z,800.72
2018-08-23T00:48:48.369Z,800.69
2018-08-23T00:48:52.469Z,800.7
2018-08-23T00:48:56.663Z,800.66
2018-08-23T00:49:00.864Z,800.67
2018-08-23T00:49:05.023Z,800.67
2018-08-23T00:49:09.011Z,800.65
2018-08-23T00:49:13.102Z,800.64
2018-08-23T00:49:17.405Z,800.62
2018-08-23T00:49:21.600Z,800.58
2018-08-23T00:49:25.583Z,800.59
2018-08-23T00:49:29.890Z,800.6
2018-08-23T00:49:34.193Z,800.59
2018-08-23T00:49:38.293Z,800.57
2018-08-23T00:49:42.595Z,800.57
2018-08-23T00:49:46.686Z,800.57
2018-08-23T00:49:50.883Z,800.52
2018-08-23T00:49:54.975Z,800.53
2018-08-23T00:49:59.066Z,800.48
2018-08-23T00:50:03.277Z,800.49
2018-08-23T00:50:07.472Z,800.52
2018-08-23T00:50:11.561Z,800.52
2018-08-23T00:50:15.756Z,800.49
2018-08-23T00:50:19.956Z,800.49
2018-08-23T00:50:24.053Z,800.49
2018-08-23T00:50:28.257Z,800.44
2018-08-23T00:50:32.561Z,800.42
2018-08-23T00:50:36.762Z,800.44
2018-08-23T00:50:40.966Z,800.45
2018-08-23T00:50:45.164Z,800.42
2018-08-23T00:50:49.264Z,800.41
2018-08-23T00:50:53.466Z,800.42
2018-08-23T00:50:57.669Z,800.39
2018-08-23T00:51:01.974Z,800.4
2018-08-23T00:51:06.223Z,800.37
2018-08-23T00:51:10.469Z,800.37
2018-08-23T00:51:14.669Z,800.36
2018-08-23T00:51:18.656Z,800.32
2018-08-23T00:51:22.966Z,800.33
2018-08-23T00:51:27.166Z,800.34
2018-08-23T00:51:31.476Z,800.33
2018-08-23T00:51:35.783Z,800.34
2018-08-23T00:51:40.083Z,800.29
2018-08-23T00:51:44.277Z,800.32
2018-08-23T00:51:48.479Z,800.3
2018-08-23T00:51:52.677Z,800.29
2018-08-23T00:51:56.773Z,800.29
2018-08-23T00:52:01.083Z,800.28
2018-08-23T00:52:05.246Z,800.2
2018-08-23T00:52:09.340Z,800.26
2018-08-23T00:52:13.442Z,800.24
2018-08-23T00:52:17.751Z,800.27
2018-08-23T00:52:21.951Z,800.22
2018-08-23T00:52:26.157Z,800.21
2018-08-23T00:52:30.360Z,800.22
2018-08-23T00:52:34.671Z,800.24
2018-08-23T00:52:38.762Z,800.21
2018-08-23T00:52:43.014Z,800.22
2018-08-23T00:52:47.330Z,800.17
2018-08-23T00:52:51.632Z,800.2
2018-08-23T00:52:55.619Z,800.21
2018-08-23T00:52:59.719Z,800.19
2018-08-23T00:53:03.926Z,800.11
2018-08-23T00:53:08.225Z,800.16
2018-08-23T00:53:12.427Z,800.13